createdAt,value
2018-12-22T00:00:16.399Z,20.2
2018-12-22T00:01:05.920Z,20.2
2018-12-22T00:01:57.612Z,20.1
2018-12-22T00:02:46.889Z,20.1
2018-12-22T00:03:36.420Z,20.1
2018-12-22T00:04:26.442Z,20
2018-12-22T00:05:16.495Z,20
2018-12-22T00:06:06.294Z,20
2018-12-22T00:06:56.619Z,19.9
2018-12-22T00:07:47.184Z,19.9
2018-12-22T00:08:36.428Z,19.9
2018-12-22T00:09:27.049Z,19.9
2018-12-22T00:10:16.076Z,19.8
2018-12-22T00:11:05.855Z,19.8
2018-12-22T00:11:56.547Z,19.8
2018-12-22T00:12:46.986Z,19.8
2018-12-22T00:13:37.360Z,19.8
2018-12-22T00:14:27.394Z,19.7
2018-12-22T00:32:38.855Z,19.2
2018-12-22T00:33:29.472Z,19.2
2018-12-22T00:34:20.030Z,19.2
2018-12-22T00:35:09.825Z,19.2
2018-12-22T00:35:59.360Z,19.1
2018-12-22T00:36:50.167Z,19.1
2018-12-22T00:37:40.220Z,19.1
2018-12-22T00:38:30.058Z,19.1
2018-12-22T00:39:19.790Z,19.1
2018-12-22T00:40:09.863Z,19.1
2018-12-22T00:41:00.192Z,19.1
2018-12-22T00:41:49.723Z,19
2018-12-22T00:42:40.977Z,19
2018-12-22T00:43:28.702Z,18.9
2018-12-22T00:44:19.865Z,19
2018-12-22T00:45:10.750Z,18.9
2018-12-22T00:46:00.343Z,18.9
2018-12-22T00:46:50.600Z,18.9
2018-12-22T00:47:40.368Z,18.9
2018-12-22T00:48:30.760Z,18.9
2018-12-22T00:49:20.480Z,18.9
2018-12-22T00:50:10.836Z,18.9
2018-12-22T00:51:00.010Z,18.8
2018-12-22T00:51:51.275Z,18.8
2018-12-22T00:52:40.228Z,18.8
2018-12-22T00:53:31.144Z,18.8
2018-12-22T00:54:22.826Z,18.8
2018-12-22T00:55:10.887Z,18.8
2018-12-22T00:56:01.295Z,18.8
2018-12-22T00:56:51.283Z,18.8
2018-12-22T00:57:40.839Z,18.8
2018-12-22T00:58:36.294Z,18.8
2018-12-22T01:02:42.158Z,18.6
2018-12-22T01:03:31.733Z,18.6
2018-12-22T01:05:11.010Z,18.6
2018-12-22T01:06:01.355Z,18.6
2018-12-22T01:06:53.742Z,18.6
2018-12-22T01:07:41.731Z,18.6
2018-12-22T01:08:32.083Z,18.6
2018-12-22T01:09:21.865Z,18.6
2018-12-22T01:10:12.453Z,18.6
2018-12-22T01:11:02.258Z,18.6
2018-12-22T01:11:52.090Z,18.5
2018-12-22T01:12:42.350Z,18.6
2018-12-22T01:13:32.418Z,18.5
2018-12-22T01:14:22.213Z,18.5
2018-12-22T01:15:12.522Z,18.5
2018-12-22T01:16:02.862Z,18.4
2018-12-22T01:16:52.116Z,18.4
2018-12-22T01:17:43.033Z,18.4
2018-12-22T01:18:32.772Z,18.4
2018-12-22T01:19:22.575Z,18.4
2018-12-22T01:20:12.575Z,18.4
2018-12-22T01:21:02.662Z,18.4
2018-12-22T01:21:53.254Z,18.4
2018-12-22T01:22:42.210Z,18.4
2018-12-22T01:23:33.097Z,18.4
2018-12-22T01:24:23.520Z,18.4
2018-12-22T01:25:12.929Z,18.4
2018-12-22T01:26:03.246Z,18.4
2018-12-22T01:26:53.590Z,18.4
2018-12-22T01:27:43.679Z,18.4
2018-12-22T01:28:42.234Z,18.4
2018-12-22T01:29:23.242Z,18.3
2018-12-22T01:30:13.312Z,18.3
2018-12-22T01:31:03.649Z,18.3
2018-12-22T01:31:53.506Z,18.3
2018-12-22T01:32:44.290Z,18.3
2018-12-22T01:33:33.787Z,18.3
2018-12-22T01:34:23.277Z,18.3
2018-12-22T01:35:14.174Z,18.3
2018-12-22T01:36:03.952Z,18.3
2018-12-22T01:36:53.735Z,18.3
2018-12-22T01:37:43.519Z,18.3
2018-12-22T01:38:33.812Z,18.3
2018-12-22T01:39:23.637Z,18.3
2018-12-22T01:40:14.513Z,18.3
2018-12-22T01:41:04.532Z,18.3
2018-12-22T01:41:54.071Z,18.3
2018-12-22T01:42:44.712Z,18.3
2018-12-22T01:43:34.752Z,18.3
2018-12-22T01:44:24.232Z,18.3
2018-12-22T01:45:14.299Z,18.3
2018-12-22T01:46:03.983Z,18.2
2018-12-22T01:46:53.856Z,18.2
2018-12-22T01:47:44.496Z,18.2
2018-12-22T01:48:34.639Z,18.2
2018-12-22T01:49:26.489Z,18.2
2018-12-22T01:50:14.664Z,18.2
2018-12-22T01:51:05.123Z,18.2
2018-12-22T01:51:54.953Z,18.2
2018-12-22T01:52:44.563Z,18.1
2018-12-22T01:53:34.841Z,18.2
2018-12-22T01:54:24.917Z,18.1
2018-12-22T01:55:14.969Z,18.2
2018-12-22T01:56:05.008Z,18.1
2018-12-22T01:56:55.363Z,18.1
2018-12-22T01:57:44.873Z,18.1
2018-12-22T01:58:34.907Z,18.1
2018-12-22T01:59:25.263Z,18.1
2018-12-22T02:00:15.303Z,18.1
2018-12-22T02:01:05.105Z,18.1
2018-12-22T02:01:55.436Z,18.1
2018-12-22T02:02:45.483Z,18.1
2018-12-22T02:03:35.786Z,18.1
2018-12-22T02:04:25.304Z,18.1
2018-12-22T02:05:15.935Z,18.1
2018-12-22T02:06:05.981Z,18.1
2018-12-22T02:06:56.042Z,18.1
2018-12-22T02:07:45.817Z,18.1
2018-12-22T02:08:35.046Z,18.1
2018-12-22T02:09:25.723Z,18.1
2018-12-22T02:10:16.358Z,18.2
2018-12-22T02:11:06.065Z,18.3
2018-12-22T02:11:56.093Z,18.3
2018-12-22T02:12:46.427Z,18.4
2018-12-22T02:13:36.447Z,18.5
2018-12-22T02:14:26.832Z,18.6
2018-12-22T02:15:15.760Z,18.8
2018-12-22T02:16:06.109Z,18.9
2018-12-22T02:16:56.675Z,19.1
2018-12-22T02:17:47.052Z,19.3
2018-12-22T02:18:36.519Z,19.6
2018-12-22T02:19:26.642Z,19.7
2018-12-22T02:20:16.395Z,20
2018-12-22T02:21:07.101Z,20.3
2018-12-22T02:21:56.502Z,20.5
2018-12-22T02:22:46.822Z,20.7
2018-12-22T02:23:37.502Z,20.9
2018-12-22T02:25:17.000Z,21.4
2018-12-22T02:26:06.793Z,21.6
2018-12-22T02:26:56.923Z,21.9
2018-12-22T02:27:47.452Z,22.1
2018-12-22T02:28:36.959Z,22.3
2018-12-22T02:29:28.178Z,22.6
2018-12-22T02:30:17.684Z,22.9
2018-12-22T02:31:07.472Z,23.1
2018-12-22T02:31:57.511Z,23.4
2018-12-22T02:32:47.929Z,23.6
2018-12-22T02:33:38.271Z,23.9
2018-12-22T02:34:28.007Z,24.1
2018-12-22T02:35:17.958Z,24.4
2018-12-22T02:36:07.922Z,24.6
2018-12-22T02:36:57.826Z,24.9
2018-12-22T02:37:47.589Z,25.1
2018-12-22T02:38:38.555Z,25.3
2018-12-22T02:39:28.364Z,25.6
2018-12-22T02:40:18.182Z,25.8
2018-12-22T02:41:08.670Z,26.1
2018-12-22T02:41:58.392Z,26.3
2018-12-22T02:42:48.482Z,26.5
2018-12-22T02:43:38.244Z,26.8
2018-12-22T02:44:28.596Z,26.9
2018-12-22T02:45:18.671Z,27.1
2018-12-22T02:46:08.728Z,27.4
2018-12-22T02:46:57.933Z,27.6
2018-12-22T02:47:49.091Z,27.8
2018-12-22T02:48:38.201Z,27.9
2018-12-22T02:49:28.722Z,28.1
2018-12-22T02:50:18.860Z,28.3
2018-12-22T02:51:08.206Z,28.4
2018-12-22T02:51:59.089Z,28.6
2018-12-22T02:52:49.430Z,28.7
2018-12-22T02:53:39.611Z,28.9
2018-12-22T02:54:29.277Z,29
2018-12-22T02:55:19.051Z,29.1
2018-12-22T02:56:09.196Z,29.3
2018-12-22T02:56:59.431Z,29.4
2018-12-22T02:57:49.200Z,29.4
2018-12-22T02:58:39.168Z,29.6
2018-12-22T02:59:29.623Z,29.6
2018-12-22T03:00:18.556Z,29.8
2018-12-22T03:01:09.165Z,29.8
2018-12-22T03:01:59.513Z,29.9
2018-12-22T03:02:49.593Z,30.1
2018-12-22T03:03:39.881Z,30.1
2018-12-22T03:04:29.195Z,30.2
2018-12-22T03:05:19.448Z,30.3
2018-12-22T03:06:10.080Z,30.4
2018-12-22T03:07:00.027Z,30.4
2018-12-22T03:07:50.158Z,30.6
2018-12-22T03:08:40.618Z,30.6
2018-12-22T03:09:30.387Z,30.8
2018-12-22T03:10:21.127Z,30.9
2018-12-22T03:11:10.242Z,30.9
2018-12-22T03:12:00.720Z,31.1
2018-12-22T03:12:50.290Z,31.2
2018-12-22T03:13:40.272Z,31.3
2018-12-22T03:14:30.937Z,31.4
2018-12-22T03:15:20.418Z,31.4
2018-12-22T03:16:10.032Z,31.5
2018-12-22T03:17:00.434Z,31.6
2018-12-22T03:17:50.638Z,31.7
2018-12-22T03:18:40.427Z,31.8
2018-12-22T03:19:30.777Z,31.9
2018-12-22T03:20:20.619Z,32
2018-12-22T03:21:10.054Z,32.1
2018-12-22T03:21:59.679Z,32.1
2018-12-22T03:22:50.492Z,32.3
2018-12-22T03:23:40.479Z,32.3
2018-12-22T03:24:30.389Z,32.4
2018-12-22T03:25:20.676Z,32.4
2018-12-22T03:26:11.208Z,32.6
2018-12-22T03:27:01.281Z,32.6
2018-12-22T03:27:52.066Z,32.7
2018-12-22T03:28:41.613Z,32.8
2018-12-22T03:29:31.825Z,32.9
2018-12-22T03:30:21.824Z,33
2018-12-22T03:31:12.099Z,33
2018-12-22T03:32:02.279Z,33.1
2018-12-22T03:32:51.784Z,33.1
2018-12-22T03:33:42.026Z,33.3
2018-12-22T03:34:31.774Z,33.3
2018-12-22T03:35:21.866Z,33.3
2018-12-22T03:36:12.443Z,33.4
2018-12-22T03:37:02.143Z,33.4
2018-12-22T03:37:52.914Z,33.4
2018-12-22T03:38:42.291Z,33.4
2018-12-22T03:39:32.309Z,33.5
2018-12-22T03:40:22.094Z,33.6
2018-12-22T03:41:12.807Z,33.6
2018-12-22T03:42:02.518Z,33.6
2018-12-22T03:42:52.583Z,33.6
2018-12-22T03:43:42.055Z,33.6
2018-12-22T03:44:31.345Z,33.7
2018-12-22T03:45:22.888Z,33.7
2018-12-22T03:46:12.248Z,33.8
2018-12-22T03:47:03.115Z,33.8
2018-12-22T03:47:52.653Z,33.8
2018-12-22T03:48:42.481Z,33.8
2018-12-22T03:49:33.328Z,33.9
2018-12-22T03:50:23.022Z,33.9
2018-12-22T03:51:13.090Z,33.9
2018-12-22T03:52:02.377Z,33.9
2018-12-22T03:52:53.354Z,33.9
2018-12-22T03:53:43.557Z,33.9
2018-12-22T03:54:33.384Z,34
2018-12-22T03:55:23.160Z,34
2018-12-22T03:56:13.448Z,34.1
2018-12-22T03:57:03.753Z,34.1
2018-12-22T03:57:52.712Z,34.1
2018-12-22T03:58:42.777Z,34.1
2018-12-22T03:59:33.947Z,34.1
2018-12-22T04:00:22.872Z,34.1
2018-12-22T04:01:14.349Z,34.1
2018-12-22T04:02:04.109Z,34.2
2018-12-22T04:02:53.732Z,34.2
2018-12-22T04:03:44.082Z,34.2
2018-12-22T04:04:34.277Z,34.3
2018-12-22T04:05:24.191Z,34.2
2018-12-22T04:06:13.994Z,34.3
2018-12-22T04:07:03.404Z,34.3
2018-12-22T04:07:53.951Z,34.3
2018-12-22T04:08:44.122Z,34.3
2018-12-22T04:09:34.103Z,34.3
2018-12-22T04:10:24.209Z,34.3
2018-12-22T04:11:14.455Z,34.3
2018-12-22T04:12:04.551Z,34.3
2018-12-22T04:12:53.795Z,34.3
2018-12-22T04:13:45.329Z,34.3
2018-12-22T04:14:34.613Z,34.4
2018-12-22T04:15:23.898Z,34.4
2018-12-22T04:16:13.718Z,34.4
2018-12-22T04:17:04.327Z,34.4
2018-12-22T04:17:54.645Z,34.4
2018-12-22T04:18:44.943Z,34.4
2018-12-22T04:19:33.483Z,34.4
2018-12-22T04:20:25.361Z,34.4
2018-12-22T04:21:15.173Z,34.4
2018-12-22T04:22:04.289Z,34.4
2018-12-22T04:22:55.112Z,34.4
2018-12-22T04:23:45.302Z,34.4
2018-12-22T04:24:35.425Z,34.4
2018-12-22T04:25:25.764Z,34.4
2018-12-22T04:26:14.117Z,34.4
2018-12-22T04:27:05.551Z,34.4
2018-12-22T04:27:55.868Z,34.5
2018-12-22T04:28:45.646Z,34.4
2018-12-22T04:29:39.394Z,34.4
2018-12-22T04:30:25.536Z,34.5
2018-12-22T04:31:15.521Z,34.5
2018-12-22T04:32:06.169Z,34.5
2018-12-22T04:32:55.916Z,34.5
2018-12-22T04:33:45.999Z,34.5
2018-12-22T04:34:36.101Z,34.5
2018-12-22T04:35:25.985Z,34.5
2018-12-22T04:36:15.546Z,34.5
2018-12-22T04:37:05.741Z,34.5
2018-12-22T04:37:56.267Z,34.5
2018-12-22T04:38:46.571Z,34.5
2018-12-22T04:39:36.103Z,34.5
2018-12-22T04:40:26.193Z,34.5
2018-12-22T04:41:15.705Z,34.5
2018-12-22T04:42:06.823Z,34.5
2018-12-22T04:42:56.355Z,34.6
2018-12-22T04:43:46.718Z,34.5
2018-12-22T04:44:36.140Z,34.5
2018-12-22T05:01:56.545Z,34.4
2018-12-22T05:02:46.564Z,34.4
2018-12-22T05:03:36.997Z,34.4
2018-12-22T05:04:26.941Z,34.4
2018-12-22T05:05:16.784Z,34.4
2018-12-22T05:06:07.366Z,34.4
2018-12-22T05:06:57.424Z,34.4
2018-12-22T05:07:47.183Z,34.4
2018-12-22T05:08:37.588Z,34.4
2018-12-22T05:09:27.681Z,34.4
2018-12-22T05:10:17.110Z,34.4
2018-12-22T05:11:07.531Z,34.4
2018-12-22T05:11:58.041Z,34.4
2018-12-22T05:12:46.384Z,34.4
2018-12-22T05:13:37.901Z,34.4
2018-12-22T05:14:27.751Z,34.4
2018-12-22T05:15:17.976Z,34.4
2018-12-22T05:16:07.770Z,34.4
2018-12-22T05:16:58.028Z,34.4
2018-12-22T05:17:47.825Z,34.4
2018-12-22T05:18:37.040Z,34.4
2018-12-22T05:19:27.680Z,34.4
2018-12-22T05:20:20.020Z,34.3
2018-12-22T05:21:08.325Z,34.3
2018-12-22T05:21:58.115Z,34.3
2018-12-22T05:22:48.215Z,34.3
2018-12-22T05:23:38.220Z,34.3
2018-12-22T05:24:28.340Z,34.3
2018-12-22T05:25:17.787Z,34.3
2018-12-22T05:26:08.387Z,34.3
2018-12-22T05:26:58.170Z,34.3
2018-12-22T05:27:48.214Z,34.3
2018-12-22T05:28:38.274Z,34.3
2018-12-22T05:29:28.335Z,34.3
2018-12-22T05:30:18.672Z,34.3
2018-12-22T05:31:08.737Z,34.3
2018-12-22T05:31:58.813Z,34.2
2018-12-22T05:32:49.146Z,34.2
2018-12-22T05:33:38.919Z,34.2
2018-12-22T05:34:29.392Z,34.2
2018-12-22T05:35:18.894Z,34.2
2018-12-22T05:36:09.029Z,34.2
2018-12-22T05:36:59.446Z,34.1
2018-12-22T05:37:49.176Z,34.1
2018-12-22T05:38:38.413Z,34.1
2018-12-22T05:39:29.693Z,34.1
2018-12-22T05:40:19.356Z,34.1
2018-12-22T05:41:09.412Z,34.1
2018-12-22T05:41:59.286Z,34.1
2018-12-22T05:42:49.778Z,34.1
2018-12-22T05:43:39.070Z,34.1
2018-12-22T05:44:29.353Z,34.1
2018-12-22T05:45:19.958Z,34.1
2018-12-22T05:46:09.219Z,34.1
2018-12-22T05:46:59.835Z,34.1
2018-12-22T05:47:49.943Z,34.1
2018-12-22T05:48:39.643Z,34.1
2018-12-22T05:49:29.140Z,34.1
2018-12-22T05:50:20.302Z,34.1
2018-12-22T05:51:09.815Z,34.1
2018-12-22T05:51:59.858Z,34
2018-12-22T05:52:50.155Z,34
2018-12-22T05:53:39.967Z,34.1
2018-12-22T05:54:30.612Z,34
2018-12-22T05:55:20.357Z,34
2018-12-22T05:56:10.707Z,34
2018-12-22T05:57:00.215Z,34
2018-12-22T05:57:50.502Z,34
2018-12-22T05:58:40.562Z,34
2018-12-22T05:59:30.385Z,34
2018-12-22T06:00:19.875Z,34
2018-12-22T06:01:10.854Z,34
2018-12-22T06:02:00.810Z,34
2018-12-22T06:02:50.867Z,34
2018-12-22T06:03:40.915Z,34
2018-12-22T06:04:30.994Z,33.9
2018-12-22T06:05:22.382Z,33.9
2018-12-22T06:06:10.817Z,33.9
2018-12-22T06:07:00.314Z,33.9
2018-12-22T06:07:51.223Z,33.9
2018-12-22T06:08:40.699Z,33.9
2018-12-22T06:09:31.325Z,33.9
2018-12-22T06:10:21.402Z,33.9
2018-12-22T06:11:11.147Z,33.9
2018-12-22T06:12:01.615Z,33.9
2018-12-22T06:12:51.007Z,33.9
2018-12-22T06:13:41.875Z,33.9
2018-12-22T06:14:31.941Z,33.9
2018-12-22T06:15:20.601Z,33.9
2018-12-22T06:16:10.999Z,33.9
2018-12-22T06:17:02.115Z,33.9
2018-12-22T06:17:52.268Z,33.9
2018-12-22T06:18:41.664Z,33.9
2018-12-22T06:19:31.449Z,33.8
2018-12-22T06:20:21.526Z,33.8
2018-12-22T06:21:12.114Z,33.8
2018-12-22T06:22:01.668Z,33.8
2018-12-22T06:22:51.726Z,33.8
2018-12-22T06:23:42.292Z,33.8
2018-12-22T06:24:32.111Z,33.8
2018-12-22T06:25:22.492Z,33.8
2018-12-22T06:26:12.498Z,33.8
2018-12-22T06:27:01.676Z,33.8
2018-12-22T06:27:52.264Z,33.8
2018-12-22T06:28:42.600Z,33.8
2018-12-22T06:29:32.484Z,33.8
2018-12-22T06:30:23.005Z,33.8
2018-12-22T06:31:11.946Z,33.7
2018-12-22T06:32:02.281Z,33.7
2018-12-22T06:32:52.633Z,33.6
2018-12-22T06:33:42.967Z,33.6
2018-12-22T06:34:32.468Z,33.6
2018-12-22T06:35:23.360Z,33.6
2018-12-22T06:36:12.563Z,33.6
2018-12-22T06:37:03.197Z,33.5
2018-12-22T06:37:53.242Z,33.4
2018-12-22T06:38:44.292Z,33.4
2018-12-22T06:39:33.351Z,33.4
2018-12-22T06:40:23.084Z,33.3
2018-12-22T06:41:13.782Z,33.3
2018-12-22T06:42:03.083Z,33.3
2018-12-22T06:42:53.452Z,33.3
2018-12-22T06:43:42.808Z,33.2
2018-12-22T06:44:33.995Z,33.2
2018-12-22T06:45:23.555Z,33.2
2018-12-22T06:46:13.655Z,33.2
2018-12-22T06:47:04.165Z,33.2
2018-12-22T06:47:55.889Z,33.2
2018-12-22T06:48:43.442Z,33.2
2018-12-22T06:49:34.551Z,33.1
2018-12-22T06:50:24.089Z,33.1
2018-12-22T06:51:14.153Z,33.1
2018-12-22T06:52:04.587Z,33.1
2018-12-22T06:52:54.025Z,33.1
2018-12-22T06:53:46.587Z,33.1
2018-12-22T06:54:34.401Z,33.1
2018-12-22T06:55:25.011Z,33
2018-12-22T06:56:13.931Z,33
2018-12-22T06:57:04.784Z,33
2018-12-22T06:57:54.382Z,33
2018-12-22T06:58:44.729Z,32.9
2018-12-22T06:59:35.026Z,32.9
2018-12-22T07:00:24.509Z,32.9
2018-12-22T07:01:15.416Z,32.9
2018-12-22T07:02:05.146Z,32.9
2018-12-22T07:02:55.278Z,32.9
2018-12-22T07:03:45.253Z,32.8
2018-12-22T07:04:34.602Z,32.8
2018-12-22T07:05:24.539Z,32.8
2018-12-22T07:06:15.133Z,32.8
2018-12-22T07:07:05.486Z,32.8
2018-12-22T07:07:54.713Z,32.8
2018-12-22T07:08:45.386Z,32.8
2018-12-22T07:09:35.105Z,32.8
2018-12-22T07:10:27.211Z,32.8
2018-12-22T07:11:16.066Z,32.7
2018-12-22T07:12:05.263Z,32.7
2018-12-22T07:12:53.735Z,32.7
2018-12-22T07:13:45.450Z,32.7
2018-12-22T07:14:35.460Z,32.7
2018-12-22T07:15:25.491Z,32.6
2018-12-22T07:16:15.868Z,32.6
2018-12-22T07:17:05.720Z,32.6
2018-12-22T07:17:56.030Z,32.6
2018-12-22T07:18:45.183Z,32.6
2018-12-22T07:19:36.353Z,32.6
2018-12-22T07:20:26.095Z,32.6
2018-12-22T07:21:16.188Z,32.5
2018-12-22T07:22:05.732Z,32.5
2018-12-22T07:22:56.040Z,32.5
2018-12-22T07:23:46.317Z,32.5
2018-12-22T07:24:36.117Z,32.4
2018-12-22T07:25:26.987Z,32.5
2018-12-22T07:26:15.930Z,32.4
2018-12-22T07:27:05.907Z,32.4
2018-12-22T07:27:56.617Z,32.4
2018-12-22T07:28:46.668Z,32.4
2018-12-22T07:29:36.452Z,32.3
2018-12-22T07:30:31.549Z,32.2
2018-12-22T07:31:16.555Z,32.1
2018-12-22T07:32:06.604Z,31.9
2018-12-22T07:33:02.764Z,31.8
2018-12-22T07:33:46.742Z,31.8
2018-12-22T07:34:36.237Z,31.6
2018-12-22T07:35:26.674Z,31.6
2018-12-22T07:36:17.191Z,31.5
2018-12-22T07:37:07.224Z,31.4
2018-12-22T07:37:56.999Z,31.3
2018-12-22T07:38:47.956Z,31.3
2018-12-22T07:39:37.194Z,31.2
2018-12-22T07:40:27.086Z,31.1
2018-12-22T07:41:17.037Z,31.1
2018-12-22T07:42:07.336Z,31.1
2018-12-22T07:42:57.159Z,31
2018-12-22T07:43:47.178Z,31
2018-12-22T07:44:37.537Z,30.9
2018-12-22T07:45:27.036Z,30.9
2018-12-22T07:46:17.668Z,30.9
2018-12-22T07:47:07.675Z,30.8
2018-12-22T07:47:57.308Z,30.8
2018-12-22T07:48:47.916Z,30.8
2018-12-22T07:49:37.316Z,30.7
2018-12-22T07:50:27.658Z,30.7
2018-12-22T07:51:17.783Z,30.7
2018-12-22T07:52:08.080Z,30.6
2018-12-22T07:52:58.017Z,30.6
2018-12-22T07:53:47.794Z,30.6
2018-12-22T07:54:38.119Z,30.6
2018-12-22T07:55:27.909Z,30.5
2018-12-22T07:56:18.504Z,30.5
2018-12-22T07:57:08.555Z,30.4
2018-12-22T07:58:00.470Z,30.4
2018-12-22T07:58:48.690Z,30.4
2018-12-22T07:59:38.827Z,30.4
2018-12-22T08:00:37.003Z,30.4
2018-12-22T08:01:20.919Z,30.4
2018-12-22T08:02:08.354Z,30.4
2018-12-22T08:02:59.227Z,30.4
2018-12-22T08:03:48.859Z,30.3
2018-12-22T08:04:39.420Z,30.3
2018-12-22T08:05:28.862Z,30.3
2018-12-22T08:06:18.712Z,30.3
2018-12-22T08:07:09.245Z,30.3
2018-12-22T08:07:58.732Z,30.3
2018-12-22T08:08:49.245Z,30.3
2018-12-22T08:09:39.402Z,30.2
2018-12-22T08:10:29.194Z,30.2
2018-12-22T08:11:19.257Z,30.2
2018-12-22T08:12:08.737Z,30.2
2018-12-22T08:12:59.887Z,30.2
2018-12-22T08:13:49.692Z,30.1
2018-12-22T08:14:39.829Z,30.1
2018-12-22T08:15:29.804Z,30.1
2018-12-22T08:16:20.157Z,30.1
2018-12-22T08:17:09.929Z,30.1
2018-12-22T08:17:59.696Z,30.1
2018-12-22T08:18:50.031Z,30.1
2018-12-22T08:19:39.880Z,30.1
2018-12-22T08:20:29.376Z,30.1
2018-12-22T08:21:19.198Z,30
2018-12-22T08:22:11.606Z,30
2018-12-22T08:23:00.216Z,30
2018-12-22T08:23:49.334Z,29.9
2018-12-22T08:24:40.141Z,29.9
2018-12-22T08:25:29.926Z,29.8
2018-12-22T08:26:21.123Z,29.8
2018-12-22T08:27:10.316Z,29.8
2018-12-22T08:28:00.208Z,29.8
2018-12-22T08:28:50.731Z,29.8
2018-12-22T08:29:40.883Z,29.8
2018-12-22T08:30:30.531Z,29.8
2018-12-22T08:31:20.583Z,29.7
2018-12-22T08:32:10.951Z,29.6
2018-12-22T08:33:01.285Z,29.7
2018-12-22T08:33:50.601Z,29.6
2018-12-22T08:34:41.110Z,29.6
2018-12-22T08:35:31.401Z,29.6
2018-12-22T08:36:20.567Z,29.6
2018-12-22T08:37:11.577Z,29.6
2018-12-22T08:38:00.493Z,29.6
2018-12-22T08:38:51.493Z,29.5
2018-12-22T08:39:41.268Z,29.5
2018-12-22T08:40:31.768Z,29.5
2018-12-22T08:41:20.738Z,29.5
2018-12-22T08:42:12.173Z,29.5
2018-12-22T08:43:01.678Z,29.6
2018-12-22T08:43:51.560Z,29.5
2018-12-22T08:44:43.435Z,29.6
2018-12-22T08:45:31.298Z,29.6
2018-12-22T08:46:21.605Z,29.6
2018-12-22T08:47:12.470Z,29.6
2018-12-22T08:48:02.261Z,29.6
2018-12-22T08:48:51.230Z,29.6
2018-12-22T08:49:41.824Z,29.6
2018-12-22T08:50:31.907Z,29.6
2018-12-22T08:51:21.947Z,29.6
2018-12-22T08:52:11.990Z,29.6
2018-12-22T08:53:02.188Z,29.6
2018-12-22T08:53:52.091Z,29.6
2018-12-22T08:54:42.452Z,29.6
2018-12-22T08:55:32.752Z,29.6
2018-12-22T08:56:22.542Z,29.6
2018-12-22T08:57:11.782Z,29.6
2018-12-22T08:58:03.071Z,29.5
2018-12-22T08:58:53.037Z,29.5
2018-12-22T08:59:42.833Z,29.5
2018-12-22T09:00:33.129Z,29.5
2018-12-22T09:16:22.398Z,29.4
2018-12-22T09:17:13.032Z,29.4
2018-12-22T09:18:03.062Z,29.4
2018-12-22T09:18:53.192Z,29.4
2018-12-22T09:19:42.957Z,29.3
2018-12-22T09:20:35.370Z,29.4
2018-12-22T09:21:23.688Z,29.4
2018-12-22T09:22:13.347Z,29.3
2018-12-22T09:23:03.440Z,29.3
2018-12-22T09:23:53.822Z,29.4
2018-12-22T09:24:43.519Z,29.3
2018-12-22T09:25:33.592Z,29.3
2018-12-22T09:26:24.024Z,29.3
2018-12-22T09:27:13.104Z,29.3
2018-12-22T09:28:03.742Z,29.3
2018-12-22T09:28:53.792Z,29.3
2018-12-22T09:29:43.854Z,29.3
2018-12-22T09:30:33.472Z,29.3
2018-12-22T09:31:22.833Z,29.3
2018-12-22T09:32:13.774Z,29.3
2018-12-22T09:33:04.199Z,29.3
2018-12-22T09:33:53.077Z,29.3
2018-12-22T09:34:44.178Z,29.3
2018-12-22T09:35:33.691Z,29.3
2018-12-22T09:36:24.289Z,29.3
2018-12-22T09:37:14.701Z,29.3
2018-12-22T09:38:03.854Z,29.3
2018-12-22T09:38:54.179Z,29.3
2018-12-22T09:39:44.829Z,29.2
2018-12-22T09:40:34.434Z,29.2
2018-12-22T09:41:23.619Z,29.2
2018-12-22T09:42:13.711Z,29.2
2018-12-22T09:43:04.530Z,29.2
2018-12-22T09:43:54.904Z,29.2
2018-12-22T09:44:44.123Z,29.2
2018-12-22T09:45:33.828Z,29.2
2018-12-22T09:46:24.389Z,29.2
2018-12-22T09:47:14.501Z,29.2
2018-12-22T09:48:05.096Z,29.1
2018-12-22T09:48:55.470Z,29.2
2018-12-22T09:49:44.937Z,29.2
2018-12-22T09:50:34.478Z,29.1
2018-12-22T09:51:25.333Z,29.1
2018-12-22T09:52:14.565Z,29.1
2018-12-22T09:53:05.508Z,29.1
2018-12-22T09:53:55.765Z,29.1
2018-12-22T09:54:45.823Z,29.1
2018-12-22T09:55:35.872Z,29.1
2018-12-22T09:56:25.733Z,29.1
2018-12-22T09:57:15.757Z,29.1
2018-12-22T09:58:05.798Z,29.1
2018-12-22T09:58:56.075Z,29.1
2018-12-22T09:59:45.597Z,29.1
2018-12-22T10:00:34.900Z,29.1
2018-12-22T10:01:25.507Z,29.1
2018-12-22T10:02:15.564Z,29.1
2018-12-22T10:03:05.902Z,29.1
2018-12-22T10:03:55.196Z,29.1
2018-12-22T10:04:45.469Z,29.1
2018-12-22T10:05:35.779Z,29.1
2018-12-22T10:06:26.364Z,29
2018-12-22T10:07:15.657Z,29.8
2018-12-22T10:08:06.718Z,39.2
2018-12-22T10:08:55.947Z,41.1
2018-12-22T10:09:46.572Z,42.9
2018-12-22T10:10:36.606Z,46.1
2018-12-22T10:11:26.379Z,47.6
2018-12-22T10:12:16.500Z,47.8
2018-12-22T10:13:06.230Z,47.6
2018-12-22T10:13:56.932Z,47.3
2018-12-22T10:14:46.337Z,46.8
2018-12-22T10:15:37.059Z,46.4
2018-12-22T10:16:27.131Z,45.9
2018-12-22T10:17:17.071Z,45.5
2018-12-22T10:18:07.531Z,45.1
2018-12-22T10:18:56.974Z,44.6
2018-12-22T10:19:47.299Z,44.2
2018-12-22T10:20:36.751Z,43.8
2018-12-22T10:21:27.881Z,43.4
2018-12-22T10:22:19.711Z,42.9
2018-12-22T10:23:07.703Z,42.4
2018-12-22T10:23:57.235Z,41.7
2018-12-22T10:24:47.331Z,40.9
2018-12-22T10:25:38.158Z,40
2018-12-22T10:26:28.213Z,39.1
2018-12-22T10:27:17.738Z,38.3
2018-12-22T10:28:07.826Z,37.4
2018-12-22T10:28:58.106Z,36.3
2018-12-22T10:29:46.815Z,34.7
2018-12-22T10:30:37.658Z,35.7
2018-12-22T10:31:28.339Z,36.1
2018-12-22T10:32:17.515Z,37.1
2018-12-22T10:33:07.582Z,37.6
2018-12-22T10:33:58.338Z,37.7
2018-12-22T10:34:48.530Z,37.6
2018-12-22T10:35:38.460Z,37.4
2018-12-22T10:36:28.646Z,37.4
2018-12-22T10:37:17.882Z,37.4
2018-12-22T10:38:07.935Z,37.4
2018-12-22T10:38:58.545Z,37.6
2018-12-22T10:39:48.314Z,37.7
2018-12-22T10:40:38.490Z,37.8
2018-12-22T10:41:28.160Z,37.9
2018-12-22T10:42:18.260Z,38
2018-12-22T10:43:07.819Z,38.1
2018-12-22T10:43:58.380Z,38.1
2018-12-22T10:44:48.995Z,38.2
2018-12-22T10:45:38.460Z,38.3
2018-12-22T10:46:28.862Z,38.4
2018-12-22T10:47:19.097Z,38.5
2018-12-22T10:48:08.780Z,38.6
2018-12-22T10:48:59.210Z,38.7
2018-12-22T10:49:49.385Z,38.8
2018-12-22T10:50:39.610Z,38.9
2018-12-22T10:51:29.762Z,38.9
2018-12-22T10:52:18.151Z,39
2018-12-22T10:53:08.764Z,39.1
2018-12-22T10:53:59.134Z,39.2
2018-12-22T10:54:49.399Z,39.3
2018-12-22T10:55:39.212Z,39.3
2018-12-22T10:56:28.692Z,39.4
2018-12-22T10:57:19.840Z,39.6
2018-12-22T10:58:09.110Z,39.7
2018-12-22T10:58:59.483Z,39.8
2018-12-22T10:59:49.468Z,39.8
2018-12-22T11:00:39.540Z,39.9
2018-12-22T11:01:31.292Z,39.9
2018-12-22T11:02:19.172Z,39.9
2018-12-22T11:03:09.990Z,40.1
2018-12-22T11:03:59.760Z,40.1
2018-12-22T11:04:49.962Z,40.1
2018-12-22T11:05:40.147Z,40.1
2018-12-22T11:06:29.919Z,40.1
2018-12-22T11:07:19.714Z,40.2
2018-12-22T11:08:10.058Z,40.3
2018-12-22T11:08:59.652Z,40.3
2018-12-22T11:09:49.620Z,40.4
2018-12-22T11:10:40.564Z,40.4
2018-12-22T11:11:30.282Z,40.4
2018-12-22T11:12:20.339Z,40.4
2018-12-22T11:13:10.111Z,40.4
2018-12-22T11:13:59.990Z,40.4
2018-12-22T11:14:50.609Z,40.4
2018-12-22T11:15:40.744Z,40.4
2018-12-22T11:16:29.933Z,40.4
2018-12-22T11:17:19.648Z,40.4
2018-12-22T11:18:09.920Z,40.4
2018-12-22T11:19:01.052Z,40.4
2018-12-22T11:19:50.830Z,40.3
2018-12-22T11:20:41.205Z,40.3
2018-12-22T11:21:31.045Z,40.3
2018-12-22T11:22:21.764Z,40.3
2018-12-22T11:23:16.598Z,40.2
2018-12-22T11:24:03.976Z,40.2
2018-12-22T11:24:51.154Z,40.2
2018-12-22T11:25:41.420Z,40.2
2018-12-22T11:26:31.762Z,40.2
2018-12-22T11:27:22.114Z,40.3
2018-12-22T11:28:11.315Z,40.3
2018-12-22T11:29:01.370Z,40.3
2018-12-22T11:29:51.703Z,40.4
2018-12-22T11:30:41.597Z,40.3
2018-12-22T11:31:40.177Z,40.3
2018-12-22T11:32:22.168Z,40.3
2018-12-22T11:33:12.235Z,40.3
2018-12-22T11:34:01.737Z,40.3
2018-12-22T11:34:51.888Z,40.3
2018-12-22T11:35:42.120Z,40.3
2018-12-22T11:36:31.612Z,40.4
2018-12-22T11:37:23.144Z,40.4
2018-12-22T11:38:12.272Z,40.3
2018-12-22T11:39:02.462Z,40.4
2018-12-22T11:39:52.672Z,40.4
2018-12-22T11:40:43.048Z,40.5
2018-12-22T11:41:32.270Z,40.6
2018-12-22T11:42:24.354Z,40.7
2018-12-22T11:43:12.917Z,40.8
2018-12-22T11:44:02.108Z,40.8
2018-12-22T11:44:52.714Z,40.9
2018-12-22T11:45:43.494Z,40.9
2018-12-22T11:46:33.102Z,41
2018-12-22T11:47:23.502Z,40.9
2018-12-22T11:48:13.524Z,41
2018-12-22T11:49:03.012Z,41
2018-12-22T11:49:53.448Z,41
2018-12-22T11:50:43.919Z,41
2018-12-22T11:51:33.317Z,41
2018-12-22T11:52:23.284Z,41
2018-12-22T11:53:13.581Z,40.9
2018-12-22T11:54:03.354Z,40.9
2018-12-22T11:54:53.401Z,40.9
2018-12-22T11:55:43.196Z,40.9
2018-12-22T11:56:33.331Z,40.9
2018-12-22T11:57:23.604Z,40.9
2018-12-22T11:58:13.634Z,40.9
2018-12-22T11:59:04.093Z,40.9
2018-12-22T11:59:54.323Z,40.9
2018-12-22T12:00:43.836Z,40.9
2018-12-22T12:01:33.016Z,40.9
2018-12-22T12:02:23.920Z,40.9